Time;durP1;ratioP1;P1;durP2;ratioP2;P2;SDS_P1;SDS_P2;PMS_P1;PMS_P2;Temp;Humidity;BMP_temperature;BMP_pressure;BME280_temperature;BME280_humidity;BME280_pressure;Samples;Min_cycle;Max_cycle;Signal;HPM_P1;HPM_P2
2022/09/11 00:01:55;;;;;;;3.50;3.20;;;20.00;66.40;;;;;;5053408;28;20063;-74
2022/09/11 00:04:22;;;;;;;3.25;2.92;;;20.00;66.90;;;;;;5053559;28;20056;-73
2022/09/11 00:06:49;;;;;;;3.33;2.90;;;20.00;66.40;;;;;;5053069;28;20502;-72
2022/09/11 00:09:17;;;;;;;3.30;3.00;;;20.00;66.40;;;;;;5053257;28;20051;-73
2022/09/11 00:11:44;;;;;;;3.05;2.75;;;20.00;66.40;;;;;;5054206;28;20049;-73
2022/09/11 00:14:12;;;;;;;3.60;3.03;;;20.00;66.40;;;;;;5052872;28;20053;-73
2022/09/11 00:16:40;;;;;;;3.63;2.83;;;20.00;66.40;;;;;;5052678;28;20082;-73
2022/09/11 00:19:07;;;;;;;3.38;3.08;;;20.00;66.40;;;;;;5052971;28;20052;-73
2022/09/11 00:21:34;;;;;;;3.25;2.95;;;19.90;66.30;;;;;;5054106;28;20100;-73
2022/09/11 00:24:04;;;;;;;3.28;2.97;;;19.90;66.40;;;;;;5054381;28;20049;-74
2022/09/11 00:26:32;;;;;;;3.30;3.00;;;19.90;66.30;;;;;;5053826;28;20053;-72
2022/09/11 00:29:00;;;;;;;3.83;2.92;;;20.00;66.40;;;;;;5052918;28;20059;-74
2022/09/11 00:31:28;;;;;;;3.22;2.88;;;20.00;66.40;;;;;;5052532;28;20060;-72
2022/09/11 00:33:55;;;;;;;2.92;2.60;;;19.90;66.30;;;;;;5053147;28;20103;-74
2022/09/11 00:36:23;;;;;;;4.38;2.90;;;19.90;66.30;;;;;;5053960;28;20048;-74
2022/09/11 00:38:50;;;;;;;3.33;3.03;;;19.90;66.40;;;;;;5052948;28;20555;-73
2022/09/11 00:41:18;;;;;;;3.00;2.70;;;19.90;66.30;;;;;;5035969;28;20067;-74
2022/09/11 00:43:54;;;;;;;3.00;2.70;;;19.90;66.30;;;;;;5052733;28;20504;-74
2022/09/11 00:46:25;;;;;;;3.30;3.00;;;19.90;66.30;;;;;;5053877;28;20048;-73
2022/09/11 00:48:53;;;;;;;3.38;2.85;;;19.90;66.30;;;;;;5052932;28;20056;-74
2022/09/11 00:51:20;;;;;;;3.13;2.72;;;19.90;66.30;;;;;;5052590;28;20056;-74
2022/09/11 00:53:48;;;;;;;3.28;2.65;;;19.90;66.30;;;;;;5052593;28;20500;-74
2022/09/11 00:56:14;;;;;;;3.20;2.83;;;19.90;66.30;;;;;;5052291;28;20083;-74
2022/09/11 00:58:42;;;;;;;3.80;2.80;;;19.90;66.30;;;;;;5052437;28;20059;-72
2022/09/11 01:01:13;;;;;;;3.35;3.05;;;19.90;66.30;;;;;;5052121;28;20053;-72
2022/09/11 01:03:40;;;;;;;3.15;2.85;;;19.90;66.30;;;;;;5053577;28;20072;-72
2022/09/11 01:06:08;;;;;;;3.03;2.72;;;19.80;66.30;;;;;;5053094;28;20055;-72
2022/09/11 01:08:35;;;;;;;4.63;3.03;;;19.90;66.40;;;;;;5053646;28;20045;-73
2022/09/11 01:11:04;;;;;;;3.45;2.90;;;19.90;66.30;;;;;;5053168;28;20406;-71
2022/09/11 01:13:34;;;;;;;3.35;2.88;;;19.80;66.30;;;;;;5052400;28;20065;-72
2022/09/11 01:16:05;;;;;;;3.33;3.00;;;19.80;66.30;;;;;;5053058;28;20052;-72
2022/09/11 01:18:35;;;;;;;3.45;3.15;;;19.90;66.30;;;;;;5051766;28;20057;-72
2022/09/11 01:21:08;;;;;;;3.38;2.92;;;19.90;66.30;;;;;;5051822;28;20524;-72
2022/09/11 01:24:00;;;;;;;3.28;2.97;;;19.80;66.30;;;;;;5052278;28;20081;-72
2022/09/11 01:26:43;;;;;;;3.33;2.97;;;18.90;67.60;;;;;;5052682;28;20383;-74
2022/09/11 01:29:16;;;;;;;3.50;2.83;;;19.80;66.30;;;;;;5052842;28;20041;-72
2022/09/11 01:31:47;;;;;;;2.83;2.63;;;19.80;66.40;;;;;;5051805;28;20143;-73
2022/09/11 01:34:16;;;;;;;3.10;2.80;;;19.80;66.30;;;;;;5053076;28;20131;-72
2022/09/11 01:36:44;;;;;;;2.90;2.60;;;19.80;66.30;;;;;;5052784;28;20072;-71
2022/09/11 01:39:11;;;;;;;3.28;2.97;;;19.80;66.30;;;;;;5052627;28;20456;-73
2022/09/11 01:41:40;;;;;;;3.10;2.80;;;19.80;66.30;;;;;;5052181;28;20048;-71
2022/09/11 01:44:09;;;;;;;3.25;2.95;;;19.80;66.30;;;;;;5052693;28;20102;-72
2022/09/11 01:46:39;;;;;;;2.90;2.60;;;19.80;66.30;;;;;;5052535;28;20478;-72
2022/09/11 01:49:08;;;;;;;3.30;3.00;;;19.80;66.30;;;;;;5052463;28;20052;-72
2022/09/11 01:51:35;;;;;;;3.00;2.70;;;19.80;66.30;;;;;;5051134;28;20044;-72
2022/09/11 01:54:02;;;;;;;3.47;3.03;;;19.80;66.30;;;;;;5046388;28;20518;-72
2022/09/11 01:56:32;;;;;;;2.97;2.67;;;19.80;66.30;;;;;;5051190;28;20053;-72
2022/09/11 01:59:00;;;;;;;3.25;2.80;;;19.80;66.30;;;;;;5052520;28;20114;-72
2022/09/11 02:01:28;;;;;;;3.30;3.00;;;19.80;66.30;;;;;;5051082;28;20494;-72
2022/09/11 02:03:59;;;;;;;3.40;2.97;;;19.80;66.30;;;;;;5051083;28;20059;-72
2022/09/11 02:06:28;;;;;;;3.17;2.88;;;19.80;66.30;;;;;;5051889;28;20049;-73
2022/09/11 02:08:57;;;;;;;4.03;3.13;;;19.80;66.30;;;;;;5051026;28;20045;-72
2022/09/11 02:11:28;;;;;;;3.40;3.10;;;19.70;66.30;;;;;;5052197;28;20053;-72
2022/09/11 02:13:57;;;;;;;3.15;2.85;;;19.80;66.30;;;;;;5051151;28;20084;-72
2022/09/11 02:16:34;;;;;;;3.70;3.00;;;19.80;66.30;;;;;;5052046;28;20059;-71
2022/09/11 02:19:02;;;;;;;3.10;2.80;;;19.80;66.30;;;;;;5051063;28;20486;-73
2022/09/11 02:21:29;;;;;;;3.13;2.83;;;19.70;66.30;;;;;;5051896;28;20131;-71
2022/09/11 02:23:56;;;;;;;3.90;2.80;;;19.70;66.40;;;;;;5052196;28;20045;-72
2022/09/11 02:26:23;;;;;;;4.10;2.97;;;19.70;66.30;;;;;;5050527;28;20070;-72
2022/09/11 02:28:50;;;;;;;3.10;2.80;;;19.70;66.30;;;;;;5050648;28;20053;-72
2022/09/11 02:31:18;;;;;;;4.53;2.88;;;19.70;66.30;;;;;;5050484;28;20057;-72
2022/09/11 02:33:45;;;;;;;3.15;2.85;;;19.70;66.30;;;;;;5052107;28;20075;-72
2022/09/11 02:36:26;;;;;;;3.15;2.85;;;19.70;66.30;;;;;;5051678;28;20048;-72
2022/09/11 02:39:00;;;;;;;2.95;2.70;;;19.70;66.30;;;;;;5051635;28;20063;-73
2022/09/11 02:41:28;;;;;;;3.38;3.08;;;19.70;68.40;;;;;;5051865;28;20056;-72
2022/09/11 02:43:59;;;;;;;3.25;2.67;;;19.70;66.30;;;;;;5050520;28;20063;-73
2022/09/11 02:46:55;;;;;;;2.72;2.50;;;19.70;66.30;;;;;;5050666;28;20056;-72
2022/09/11 02:49:25;;;;;;;3.38;2.50;;;19.70;66.20;;;;;;5037876;28;20053;-74
2022/09/11 02:51:55;;;;;;;4.05;2.80;;;19.70;66.30;;;;;;5051074;28;20049;-72
2022/09/11 02:54:24;;;;;;;2.80;2.50;;;19.70;66.30;;;;;;5051855;28;20413;-72
2022/09/11 02:56:55;;;;;;;3.13;2.83;;;19.70;66.30;;;;;;5050264;28;20144;-72
2022/09/11 02:59:25;;;;;;;3.10;2.60;;;19.70;66.30;;;;;;5050363;28;20056;-72
2022/09/11 03:01:53;;;;;;;2.67;2.47;;;19.70;66.30;;;;;;5049782;28;20057;-72
2022/09/11 03:04:21;;;;;;;3.03;2.58;;;19.70;66.30;;;;;;5050595;28;20087;-72
2022/09/11 03:06:48;;;;;;;2.60;2.40;;;19.70;66.30;;;;;;5050527;28;20060;-71
2022/09/11 03:09:17;;;;;;;3.38;2.70;;;19.70;66.30;;;;;;5049954;28;20053;-72
2022/09/11 03:11:44;;;;;;;2.83;2.38;;;19.70;66.30;;;;;;5050228;28;20055;-73
2022/09/11 03:14:10;;;;;;;2.55;2.35;;;19.70;66.30;;;;;;5050147;28;20478;-72
2022/09/11 03:16:38;;;;;;;2.75;2.55;;;19.70;66.30;;;;;;5051113;28;20056;-71
2022/09/11 03:19:05;;;;;;;2.60;2.40;;;20.00;66.50;;;;;;5050096;28;20127;-72
2022/09/11 03:21:31;;;;;;;2.60;2.40;;;19.70;66.30;;;;;;5050148;28;20055;-72
2022/09/11 03:23:58;;;;;;;2.67;2.47;;;19.70;66.30;;;;;;5051800;28;20071;-73
2022/09/11 03:26:26;;;;;;;3.25;2.55;;;19.70;66.30;;;;;;5050249;28;20059;-72
2022/09/11 03:28:53;;;;;;;2.97;2.67;;;19.70;66.30;;;;;;5050076;28;20057;-72
2022/09/11 03:31:20;;;;;;;2.80;2.60;;;19.70;66.40;;;;;;5049844;28;20049;-72
2022/09/11 03:33:46;;;;;;;2.50;2.30;;;19.60;66.20;;;;;;5050214;28;20057;-72
2022/09/11 03:36:13;;;;;;;3.13;2.35;;;19.70;66.30;;;;;;5049685;28;20056;-72
2022/09/11 03:38:40;;;;;;;2.45;2.25;;;19.70;66.30;;;;;;5050150;28;20059;-72
2022/09/11 03:41:08;;;;;;;2.60;2.13;;;19.70;66.30;;;;;;5050037;28;20406;-73
2022/09/11 03:43:36;;;;;;;2.70;2.40;;;19.70;66.30;;;;;;5052749;28;20081;-74
2022/09/11 03:46:03;;;;;;;2.65;2.45;;;19.70;66.30;;;;;;5053656;28;20048;-73
2022/09/11 03:48:29;;;;;;;2.50;2.30;;;19.60;66.20;;;;;;5053681;28;20059;-74
2022/09/11 03:50:57;;;;;;;2.65;2.35;;;19.60;66.30;;;;;;5054769;28;20381;-74
2022/09/11 03:53:24;;;;;;;2.60;2.30;;;19.70;66.30;;;;;;5053785;28;20052;-74
2022/09/11 03:55:51;;;;;;;2.40;2.10;;;19.60;66.30;;;;;;5053727;28;20059;-74
2022/09/11 03:58:18;;;;;;;2.13;1.92;;;19.60;66.30;;;;;;5053825;28;20131;-74
2022/09/11 04:00:46;;;;;;;2.45;2.08;;;19.60;66.30;;;;;;5053028;28;20132;-73
2022/09/11 04:03:14;;;;;;;2.53;2.33;;;19.60;66.30;;;;;;5053400;28;20139;-73
2022/09/11 04:05:42;;;;;;;2.53;2.33;;;19.60;66.30;;;;;;5053593;28;20114;-73
2022/09/11 04:08:10;;;;;;;2.53;2.30;;;19.60;66.30;;;;;;5053345;28;20053;-73
2022/09/11 04:10:37;;;;;;;2.78;2.47;;;19.60;66.30;;;;;;5053498;28;20625;-74
2022/09/11 04:13:04;;;;;;;2.83;2.50;;;19.60;66.20;;;;;;5053111;28;20141;-74
2022/09/11 04:15:31;;;;;;;2.42;2.22;;;19.60;66.20;;;;;;5052670;28;20413;-74
2022/09/11 04:17:59;;;;;;;2.88;2.58;;;19.60;66.30;;;;;;5053045;28;20064;-74
2022/09/11 04:20:26;;;;;;;2.53;2.33;;;19.60;66.30;;;;;;5052628;28;20049;-74
2022/09/11 04:22:54;;;;;;;2.53;2.00;;;19.60;66.20;;;;;;5052494;28;20103;-74
2022/09/11 04:25:21;;;;;;;2.47;2.28;;;19.60;66.20;;;;;;5052793;28;20063;-74
2022/09/11 04:27:48;;;;;;;2.70;2.22;;;19.60;66.20;;;;;;5052380;28;20059;-73
2022/09/11 04:30:15;;;;;;;2.50;2.30;;;19.60;66.20;;;;;;5053718;28;20049;-72
2022/09/11 04:32:41;;;;;;;1.95;1.75;;;19.60;66.20;;;;;;5053672;28;20044;-72
2022/09/11 04:35:10;;;;;;;2.10;1.90;;;19.60;66.20;;;;;;5053797;28;20043;-73
2022/09/11 04:37:36;;;;;;;2.28;2.08;;;19.60;66.20;;;;;;5052437;28;20116;-72
2022/09/11 04:40:03;;;;;;;1.90;1.70;;;19.60;66.10;;;;;;5052244;28;20413;-72
2022/09/11 04:42:30;;;;;;;2.08;1.88;;;19.60;66.10;;;;;;5052975;28;20443;-72
2022/09/11 04:44:56;;;;;;;2.22;2.00;;;19.50;66.10;;;;;;5053437;28;20053;-73
2022/09/11 04:47:23;;;;;;;2.00;1.80;;;19.60;66.10;;;;;;5052775;28;20056;-72
2022/09/11 04:49:51;;;;;;;2.08;1.88;;;19.60;66.10;;;;;;5053922;28;20486;-72
2022/09/11 04:52:19;;;;;;;2.15;1.85;;;19.60;66.10;;;;;;5053726;28;20401;-71
2022/09/11 04:54:47;;;;;;;2.08;1.90;;;19.60;66.10;;;;;;5051517;28;20048;-71
2022/09/11 04:57:13;;;;;;;2.20;2.00;;;19.60;66.10;;;;;;5053546;28;20068;-71
2022/09/11 04:59:40;;;;;;;2.10;1.90;;;19.50;66.00;;;;;;5053345;28;20053;-71
2022/09/11 05:02:07;;;;;;;2.15;1.85;;;19.50;66.00;;;;;;5052274;28;20048;-72
2022/09/11 05:04:33;;;;;;;1.98;1.77;;;19.50;66.00;;;;;;5052489;28;20060;-71
2022/09/11 05:07:00;;;;;;;2.03;1.83;;;19.50;66.00;;;;;;5053128;28;20409;-70
2022/09/11 05:09:28;;;;;;;2.20;2.00;;;19.50;66.00;;;;;;5052440;28;20205;-72
2022/09/11 05:11:56;;;;;;;1.70;1.60;;;19.50;66.00;;;;;;5068932;28;20055;-72
2022/09/11 05:14:22;;;;;;;1.88;1.70;;;19.50;66.00;;;;;;5051735;28;20063;-70
2022/09/11 05:16:51;;;;;;;2.05;1.50;;;19.50;66.00;;;;;;5052291;28;20059;-70
2022/09/11 05:19:18;;;;;;;2.00;1.80;;;19.50;66.00;;;;;;5052973;28;20095;-71
2022/09/11 05:21:44;;;;;;;1.80;1.60;;;19.50;65.90;;;;;;5053004;28;20045;-70
2022/09/11 05:24:11;;;;;;;2.10;1.90;;;19.50;65.90;;;;;;5051769;28;20061;-70
2022/09/11 05:26:39;;;;;;;1.63;1.52;;;19.50;65.90;;;;;;5052061;28;20063;-71
2022/09/11 05:29:07;;;;;;;1.95;1.60;;;19.50;65.90;;;;;;5051553;28;20079;-71
2022/09/11 05:31:35;;;;;;;1.98;1.70;;;19.50;65.90;;;;;;5051653;28;20053;-71
2022/09/11 05:34:02;;;;;;;1.83;1.67;;;19.50;65.90;;;;;;5051980;28;20060;-71
2022/09/11 05:36:30;;;;;;;1.67;1.50;;;19.50;65.90;;;;;;5053080;28;20071;-70
2022/09/11 05:38:57;;;;;;;1.90;1.70;;;19.50;65.90;;;;;;5051927;28;20052;-70
2022/09/11 05:41:24;;;;;;;2.03;1.50;;;20.20;68.20;;;;;;5034764;28;20044;-71
2022/09/11 05:43:53;;;;;;;1.73;1.63;;;19.50;65.90;;;;;;5051471;28;21750;-71
2022/09/11 05:46:20;;;;;;;2.30;1.67;;;19.50;65.80;;;;;;5051690;28;20130;-70
2022/09/11 05:48:47;;;;;;;1.70;1.60;;;19.40;65.80;;;;;;5051645;28;20143;-70
2022/09/11 05:51:14;;;;;;;1.70;1.60;;;19.50;65.80;;;;;;5051427;28;20494;-71
2022/09/11 05:53:41;;;;;;;1.75;1.65;;;19.50;65.80;;;;;;5051409;28;20056;-70
2022/09/11 05:56:09;;;;;;;1.63;1.52;;;19.50;65.80;;;;;;5052737;28;20075;-70
2022/09/11 05:58:35;;;;;;;1.55;1.45;;;19.50;65.80;;;;;;5051246;28;20087;-70
2022/09/11 06:01:05;;;;;;;2.08;1.65;;;19.50;65.80;;;;;;5050790;28;20132;-70
2022/09/11 06:03:32;;;;;;;2.70;1.70;;;19.50;65.80;;;;;;5051625;28;20061;-70
2022/09/11 06:05:59;;;;;;;1.50;1.40;;;19.50;65.80;;;;;;5050608;28;20057;-70
2022/09/11 06:08:26;;;;;;;1.50;1.40;;;19.40;65.70;;;;;;5051089;28;20064;-70
2022/09/11 06:10:53;;;;;;;1.40;1.30;;;19.40;65.70;;;;;;5051251;28;20059;-70
2022/09/11 06:13:19;;;;;;;1.60;1.50;;;19.40;65.70;;;;;;5051606;28;20545;-70
2022/09/11 06:15:46;;;;;;;1.48;1.38;;;19.50;65.70;;;;;;5051994;28;20049;-70
2022/09/11 06:18:14;;;;;;;1.55;1.40;;;19.50;65.70;;;;;;5051136;28;20241;-70
2022/09/11 06:20:41;;;;;;;1.55;1.45;;;19.50;65.70;;;;;;5050555;28;20550;-71
2022/09/11 06:23:08;;;;;;;2.10;1.52;;;19.50;65.70;;;;;;5051801;28;20052;-71
2022/09/11 06:25:35;;;;;;;1.50;1.40;;;19.50;65.70;;;;;;5050925;28;20140;-72
2022/09/11 06:28:03;;;;;;;1.52;1.33;;;19.40;65.60;;;;;;5051614;28;20048;-72
2022/09/11 06:30:29;;;;;;;1.70;1.40;;;19.50;65.70;;;;;;5050679;28;20092;-72
2022/09/11 06:32:57;;;;;;;1.70;1.60;;;19.50;65.60;;;;;;5051909;28;20040;-72
2022/09/11 06:35:25;;;;;;;1.88;1.58;;;19.10;65.80;;;;;;5050548;28;20055;-70
2022/09/11 06:37:52;;;;;;;1.58;1.48;;;19.50;65.60;;;;;;5050640;28;20056;-72
2022/09/11 06:40:19;;;;;;;1.80;1.42;;;19.50;65.60;;;;;;5051635;28;20053;-72
2022/09/11 06:42:46;;;;;;;3.17;1.50;;;19.80;67.60;;;;;;5051689;28;20040;-72
2022/09/11 06:45:13;;;;;;;1.92;1.70;;;19.50;65.60;;;;;;5050756;28;20049;-72
2022/09/11 06:47:40;;;;;;;1.80;1.30;;;19.50;65.60;;;;;;5051560;28;20051;-72
2022/09/11 06:50:07;;;;;;;1.60;1.50;;;19.50;65.60;;;;;;5049915;28;20516;-73
2022/09/11 06:52:35;;;;;;;1.70;1.48;;;19.50;65.60;;;;;;5050313;28;20565;-74
2022/09/11 06:55:03;;;;;;;1.55;1.40;;;19.50;65.50;;;;;;5051685;28;20498;-73
2022/09/11 06:57:29;;;;;;;1.70;1.60;;;19.50;65.50;;;;;;5066947;28;20128;-74
2022/09/11 06:59:57;;;;;;;1.70;1.50;;;19.50;65.50;;;;;;5050166;28;20053;-72
2022/09/11 07:02:24;;;;;;;1.95;1.50;;;19.50;65.50;;;;;;5051783;28;20399;-73
2022/09/11 07:04:52;;;;;;;1.90;1.50;;;19.50;65.50;;;;;;5050178;28;20077;-72
2022/09/11 07:07:18;;;;;;;1.50;1.40;;;19.60;65.50;;;;;;5050203;28;20068;-73
2022/09/11 07:09:46;;;;;;;1.73;1.60;;;19.50;65.50;;;;;;5050010;28;20292;-72
2022/09/11 07:12:13;;;;;;;1.52;1.40;;;19.60;65.50;;;;;;5051401;28;20041;-73
2022/09/11 07:14:40;;;;;;;1.50;1.40;;;19.60;65.50;;;;;;5051348;28;20056;-74
2022/09/11 07:17:07;;;;;;;1.83;1.40;;;19.60;65.50;;;;;;5051083;28;20052;-73
2022/09/11 07:19:34;;;;;;;1.50;1.40;;;19.60;65.50;;;;;;5054313;28;20060;-72
2022/09/11 07:22:01;;;;;;;1.50;1.40;;;19.60;65.50;;;;;;5054203;28;20080;-72
2022/09/11 07:24:27;;;;;;;2.38;1.90;;;19.60;65.50;;;;;;5053277;28;20044;-73
2022/09/11 07:26:56;;;;;;;1.52;1.33;;;19.60;65.50;;;;;;5055418;28;20049;-72
2022/09/11 07:29:22;;;;;;;1.40;1.30;;;19.60;65.40;;;;;;5054026;28;20072;-72
2022/09/11 07:31:49;;;;;;;1.48;1.38;;;19.70;65.50;;;;;;5055281;28;20041;-72
2022/09/11 07:34:16;;;;;;;1.88;1.58;;;19.70;65.50;;;;;;5053877;28;20063;-74
2022/09/11 07:36:44;;;;;;;1.40;1.30;;;19.70;65.50;;;;;;5053991;28;20057;-74
2022/09/11 07:39:11;;;;;;;1.60;1.50;;;19.60;65.40;;;;;;5054023;28;20110;-74
2022/09/11 07:41:37;;;;;;;1.40;1.30;;;19.60;65.40;;;;;;5053598;28;20398;-73
2022/09/11 07:44:06;;;;;;;1.45;1.33;;;19.70;65.50;;;;;;5054188;28;20056;-72
2022/09/11 07:46:32;;;;;;;1.40;1.30;;;19.70;65.40;;;;;;5053713;28;20514;-71
2022/09/11 07:49:00;;;;;;;1.40;1.30;;;19.70;65.40;;;;;;5053870;28;20098;-72
2022/09/11 07:51:27;;;;;;;1.70;1.35;;;19.70;65.40;;;;;;5053432;28;20053;-74
2022/09/11 07:53:56;;;;;;;2.28;1.77;;;19.70;65.40;;;;;;5053044;28;20052;-73
2022/09/11 07:56:24;;;;;;;1.67;1.25;;;19.80;67.00;;;;;;5054123;28;20072;-74
2022/09/11 07:58:51;;;;;;;2.85;1.40;;;19.70;65.40;;;;;;5053346;28;20055;-73
2022/09/11 08:01:21;;;;;;;3.22;1.20;;;19.70;65.30;;;;;;5054279;28;20413;-73
2022/09/11 08:03:48;;;;;;;1.30;1.20;;;19.80;65.30;;;;;;5053174;28;20068;-73
2022/09/11 08:06:16;;;;;;;1.50;1.30;;;19.80;65.30;;;;;;5050825;28;20061;-73
2022/09/11 08:08:42;;;;;;;2.05;1.38;;;19.80;65.30;;;;;;5053228;28;20490;-73
2022/09/11 08:11:10;;;;;;;1.30;1.20;;;19.80;65.30;;;;;;5053750;28;20045;-74
2022/09/11 08:13:37;;;;;;;2.17;1.38;;;19.80;65.20;;;;;;5053244;28;20057;-74
2022/09/11 08:16:05;;;;;;;1.65;1.40;;;19.80;65.20;;;;;;5053477;28;20057;-72
2022/09/11 08:18:34;;;;;;;1.70;1.20;;;19.80;65.20;;;;;;5054595;28;20049;-72
2022/09/11 08:21:02;;;;;;;1.10;1.00;;;19.80;65.10;;;;;;5052629;28;20073;-71
2022/09/11 08:23:29;;;;;;;1.30;1.20;;;19.90;65.10;;;;;;5054124;28;20049;-71
2022/09/11 08:25:56;;;;;;;1.20;1.10;;;19.90;65.10;;;;;;5053043;28;20509;-72
2022/09/11 08:28:23;;;;;;;1.25;1.15;;;19.90;65.10;;;;;;5052123;28;20053;-72
2022/09/11 08:30:49;;;;;;;1.98;1.10;;;19.90;65.10;;;;;;5052475;28;20049;-71
2022/09/11 08:33:18;;;;;;;2.10;1.30;;;19.90;65.00;;;;;;5053893;28;20059;-71
2022/09/11 08:35:46;;;;;;;1.83;1.27;;;20.00;65.10;;;;;;5052759;28;20053;-74
2022/09/11 08:38:12;;;;;;;2.50;1.33;;;19.90;65.10;;;;;;5053135;28;20414;-74
2022/09/11 08:40:39;;;;;;;1.30;1.20;;;19.90;65.00;;;;;;5052677;28;20425;-73
2022/09/11 08:43:06;;;;;;;1.90;1.10;;;20.00;65.10;;;;;;5053510;28;20401;-71
2022/09/11 08:45:34;;;;;;;1.40;1.25;;;20.00;65.00;;;;;;5052716;28;20055;-74
2022/09/11 08:48:01;;;;;;;2.10;1.10;;;20.00;65.00;;;;;;5052437;28;20059;-71
2022/09/11 08:50:30;;;;;;;1.77;1.35;;;20.00;65.00;;;;;;5052268;28;20055;-72
2022/09/11 08:52:59;;;;;;;1.65;1.55;;;20.00;65.00;;;;;;5050969;28;20041;-73
2022/09/11 08:55:30;;;;;;;4.18;1.35;;;20.00;65.00;;;;;;5052125;28;20053;-74
2022/09/11 08:58:00;;;;;;;3.10;1.40;;;20.00;65.10;;;;;;5052267;28;20055;-74
2022/09/11 09:00:30;;;;;;;1.95;1.50;;;20.00;65.10;;;;;;5051757;28;20045;-73
2022/09/11 09:03:19;;;;;;;1.60;1.40;;;20.10;65.10;;;;;;5052319;28;20049;-73
2022/09/11 09:05:49;;;;;;;1.77;1.52;;;20.10;65.10;;;;;;5045891;28;20055;-72
2022/09/11 09:08:36;;;;;;;2.22;1.30;;;20.10;65.10;;;;;;5049953;28;20060;-73
2022/09/11 09:11:07;;;;;;;1.90;1.30;;;20.10;65.00;;;;;;5035423;28;20060;-73
2022/09/11 09:13:47;;;;;;;1.88;1.30;;;20.00;65.10;;;;;;5053191;28;20052;-73
2022/09/11 09:16:21;;;;;;;1.75;1.20;;;20.10;65.10;;;;;;5049715;28;20067;-75
2022/09/11 09:18:49;;;;;;;1.33;1.23;;;20.00;65.10;;;;;;5050683;28;20059;-73
2022/09/11 09:21:19;;;;;;;3.47;1.20;;;20.00;65.00;;;;;;5052918;28;20390;-73
2022/09/11 09:23:49;;;;;;;1.10;0.95;;;20.10;65.10;;;;;;5050959;28;21406;-73
2022/09/11 09:26:17;;;;;;;2.05;1.20;;;20.00;64.90;;;;;;5051761;28;20045;-73
2022/09/11 09:28:46;;;;;;;2.47;1.20;;;20.00;65.00;;;;;;5051386;28;20056;-73
2022/09/11 09:31:13;;;;;;;1.58;1.10;;;20.00;64.90;;;;;;5052403;28;20663;-73
2022/09/11 09:33:42;;;;;;;2.03;1.42;;;20.00;64.90;;;;;;5052134;28;20053;-73
2022/09/11 09:36:16;;;;;;;1.30;1.20;;;20.10;65.00;;;;;;5053146;28;20147;-73
2022/09/11 09:38:43;;;;;;;1.53;1.23;;;20.10;65.00;;;;;;5052550;28;20445;-72
2022/09/11 09:41:39;;;;;;;1.10;1.00;;;20.10;65.00;;;;;;5050892;28;20307;-73
2022/09/11 09:44:08;;;;;;;1.80;1.55;;;20.10;64.90;;;;;;5051972;28;20504;-73
2022/09/11 09:46:37;;;;;;;1.50;1.20;;;20.10;65.00;;;;;;5051603;28;20143;-74
2022/09/11 09:49:03;;;;;;;1.88;1.20;;;20.10;64.90;;;;;;5050399;28;20067;-73
2022/09/11 09:51:30;;;;;;;1.92;1.30;;;20.20;64.90;;;;;;5051434;28;20047;-73
2022/09/11 09:53:57;;;;;;;3.05;1.40;;;20.20;64.90;;;;;;5049747;28;20049;-73
2022/09/11 09:56:24;;;;;;;3.60;1.60;;;20.20;64.90;;;;;;5051523;28;20061;-73
2022/09/11 09:58:57;;;;;;;3.78;1.60;;;20.20;64.90;;;;;;5052106;28;20409;-73
2022/09/11 10:01:46;;;;;;;2.50;1.23;;;20.20;64.90;;;;;;5048862;28;20051;-73
2022/09/11 10:04:15;;;;;;;2.10;1.38;;;20.30;64.90;;;;;;5048797;28;20140;-73
2022/09/11 10:06:44;;;;;;;4.00;1.40;;;20.20;64.90;;;;;;5051913;28;20052;-71
2022/09/11 10:09:22;;;;;;;1.50;1.40;;;20.20;64.90;;;;;;5050536;28;20052;-71
2022/09/11 10:11:52;;;;;;;1.38;1.20;;;20.30;64.90;;;;;;5048053;28;20063;-70
2022/09/11 10:14:21;;;;;;;2.33;1.40;;;20.30;64.90;;;;;;5051315;28;20052;-73
2022/09/11 10:16:49;;;;;;;1.30;1.13;;;20.30;64.90;;;;;;5050700;28;20068;-73
2022/09/11 10:19:37;;;;;;;1.40;1.20;;;20.30;64.90;;;;;;5050900;28;20409;-73
2022/09/11 10:22:24;;;;;;;1.20;1.10;;;21.50;67.40;;;;;;5050383;28;20059;-72
2022/09/11 10:25:14;;;;;;;1.88;1.20;;;20.30;64.80;;;;;;5051154;28;20081;-72
2022/09/11 10:27:50;;;;;;;3.85;1.40;;;20.30;64.80;;;;;;5050974;28;20067;-73
2022/09/11 10:30:40;;;;;;;2.35;1.27;;;20.30;64.90;;;;;;5049941;28;20527;-73
2022/09/11 10:33:17;;;;;;;1.20;1.10;;;20.30;64.80;;;;;;5045461;28;20056;-73
2022/09/11 10:35:49;;;;;;;2.13;1.30;;;20.30;64.90;;;;;;5048973;28;20063;-73
2022/09/11 10:38:17;;;;;;;1.45;1.27;;;20.30;64.90;;;;;;5050506;28;20059;-73
2022/09/11 10:40:55;;;;;;;1.27;1.10;;;20.30;64.90;;;;;;5050648;28;20057;-73
2022/09/11 10:43:24;;;;;;;2.20;1.20;;;20.30;64.80;;;;;;5050064;28;20048;-72
2022/09/11 10:46:10;;;;;;;1.30;1.10;;;20.30;64.90;;;;;;5029538;28;20103;-72
2022/09/11 10:48:41;;;;;;;1.45;1.20;;;20.30;64.90;;;;;;5030926;28;20060;-72
2022/09/11 10:51:09;;;;;;;1.95;1.20;;;20.30;64.90;;;;;;5031451;28;20473;-72
2022/09/11 10:53:38;;;;;;;1.35;1.08;;;20.30;64.90;;;;;;5030761;28;20092;-74
2022/09/11 10:56:05;;;;;;;1.55;1.20;;;20.30;64.80;;;;;;5030488;28;20054;-74
2022/09/11 10:58:33;;;;;;;1.38;1.27;;;20.30;64.90;;;;;;5037678;28;20056;-73
2022/09/11 11:01:00;;;;;;;1.40;1.20;;;20.30;64.90;;;;;;5049242;28;20060;-73
2022/09/11 11:03:28;;;;;;;1.42;1.13;;;20.30;64.90;;;;;;5051418;28;20159;-72
2022/09/11 11:06:00;;;;;;;2.15;1.10;;;20.30;64.90;;;;;;5051965;28;20055;-73
2022/09/11 11:09:07;;;;;;;2.70;1.17;;;20.30;65.00;;;;;;5052969;28;20053;-74
2022/09/11 11:11:41;;;;;;;1.58;1.17;;;20.30;65.00;;;;;;5053739;28;20124;-73
2022/09/11 11:14:31;;;;;;;1.43;1.10;;;20.30;65.10;;;;;;5053757;28;20045;-73
2022/09/11 11:17:03;;;;;;;1.15;1.05;;;20.30;65.00;;;;;;5052089;28;20460;-73
2022/09/11 11:19:41;;;;;;;1.20;1.10;;;20.30;65.00;;;;;;5050150;28;20076;-73
2022/09/11 11:22:13;;;;;;;1.10;1.00;;;20.40;65.00;;;;;;5052008;28;20055;-73
2022/09/11 11:24:46;;;;;;;1.35;1.00;;;20.40;65.00;;;;;;5050995;28;20401;-73
2022/09/11 11:27:36;;;;;;;1.08;1.00;;;20.40;65.00;;;;;;5050822;28;20082;-73
2022/09/11 11:30:10;;;;;;;1.70;1.35;;;20.40;64.90;;;;;;5051664;28;20140;-74
2022/09/11 11:32:51;;;;;;;2.92;1.10;;;20.40;64.90;;;;;;5053143;28;20132;-73
2022/09/11 11:35:22;;;;;;;1.10;1.00;;;20.40;65.00;;;;;;5052251;28;20071;-73
2022/09/11 11:37:50;;;;;;;2.88;1.00;;;20.40;65.00;;;;;;5052864;28;20049;-74
2022/09/11 11:40:22;;;;;;;1.10;0.98;;;20.40;64.90;;;;;;5054116;28;20246;-73
2022/09/11 11:42:50;;;;;;;1.10;1.00;;;20.40;65.40;;;;;;5049640;28;20533;-74
2022/09/11 11:45:21;;;;;;;3.22;1.02;;;20.40;64.90;;;;;;5051352;28;20053;-72
2022/09/11 11:47:47;;;;;;;1.73;0.95;;;20.40;65.00;;;;;;5049165;28;20059;-70
2022/09/11 11:50:20;;;;;;;1.98;1.25;;;20.40;65.00;;;;;;5049666;28;20076;-71
2022/09/11 11:52:53;;;;;;;1.15;1.00;;;20.40;65.00;;;;;;5064215;28;20071;-72
2022/09/11 11:55:21;;;;;;;1.20;1.10;;;20.40;64.90;;;;;;5051043;28;20049;-71
2022/09/11 11:57:53;;;;;;;1.48;1.05;;;20.40;64.90;;;;;;5049682;28;20053;-71
2022/09/11 12:00:20;;;;;;;1.38;1.20;;;20.50;64.90;;;;;;5049435;28;20509;-71
2022/09/11 12:02:49;;;;;;;1.23;1.00;;;20.50;64.90;;;;;;5051055;28;20128;-71
2022/09/11 12:05:17;;;;;;;1.90;1.10;;;20.50;64.80;;;;;;5053447;28;20126;-73
2022/09/11 12:07:46;;;;;;;1.10;1.00;;;20.60;64.80;;;;;;5053500;28;20512;-71
2022/09/11 12:10:21;;;;;;;1.50;1.10;;;20.60;64.70;;;;;;5054305;28;20129;-71
2022/09/11 12:12:50;;;;;;;1.33;1.13;;;20.60;64.60;;;;;;5053289;28;20049;-72
2022/09/11 12:15:18;;;;;;;1.58;1.00;;;20.60;64.60;;;;;;5052534;28;20052;-73
2022/09/11 12:17:45;;;;;;;1.20;1.10;;;20.70;64.60;;;;;;5053537;28;20413;-72
2022/09/11 12:20:39;;;;;;;1.83;1.20;;;20.70;64.50;;;;;;5053547;28;20053;-71
2022/09/11 12:23:07;;;;;;;2.03;1.10;;;20.70;64.40;;;;;;5053185;28;20084;-73
2022/09/11 12:26:15;;;;;;;1.08;0.98;;;20.70;64.50;;;;;;5053976;28;20067;-72
2022/09/11 12:28:41;;;;;;;1.27;1.10;;;20.60;66.10;;;;;;5053804;28;20124;-72
2022/09/11 12:31:10;;;;;;;1.65;1.10;;;20.70;64.60;;;;;;5050664;28;20052;-72
2022/09/11 12:33:53;;;;;;;1.10;0.95;;;20.70;64.50;;;;;;5051923;28;20053;-72
2022/09/11 12:36:23;;;;;;;1.50;1.20;;;20.70;64.50;;;;;;5052177;28;20087;-71
2022/09/11 12:38:51;;;;;;;1.55;1.10;;;20.70;64.60;;;;;;5052258;28;20486;-71
2022/09/11 12:41:24;;;;;;;1.50;1.20;;;20.70;64.60;;;;;;5052486;28;20061;-73
2022/09/11 12:43:51;;;;;;;2.28;0.98;;;20.70;64.60;;;;;;5052340;28;20124;-73
2022/09/11 12:46:55;;;;;;;1.20;1.10;;;20.70;64.60;;;;;;5052193;28;20057;-73
2022/09/11 12:49:22;;;;;;;0.90;0.90;;;20.80;64.60;;;;;;5053904;28;20049;-72
2022/09/11 12:51:51;;;;;;;1.52;1.00;;;20.70;64.60;;;;;;5052470;28;20575;-72
2022/09/11 12:54:19;;;;;;;7.95;1.25;;;20.70;64.60;;;;;;5052645;28;20052;-71
2022/09/11 12:56:49;;;;;;;2.30;1.10;;;20.70;64.60;;;;;;5053241;28;20124;-72
2022/09/11 12:59:22;;;;;;;3.55;1.00;;;20.80;64.60;;;;;;5053353;28;20512;-72
2022/09/11 13:01:49;;;;;;;3.65;1.08;;;20.80;64.60;;;;;;5052135;28;20448;-72